sensor_id;sensor_type;location;lat;lon;timestamp;P1;durP1;ratioP1;P2;durP2;ratioP2
57231;SDS011;43488;46.934;8.276;2023-04-25T00:00:00;565.10;;;242.23;;
57231;SDS011;43488;46.934;8.276;2023-04-25T00:02:30;560.58;;;243.07;;
57231;SDS011;43488;46.934;8.276;2023-04-25T00:05:01;550.95;;;235.65;;
57231;SDS011;43488;46.934;8.276;2023-04-25T00:07:28;563.45;;;248.32;;
57231;SDS011;43488;46.934;8.276;2023-04-25T00:09:56;573.97;;;248.82;;
57231;SDS011;43488;46.934;8.276;2023-04-25T00:12:23;566.45;;;245.55;;
57231;SDS011;43488;46.934;8.276;2023-04-25T00:14:50;563.08;;;242.65;;
57231;SDS011;43488;46.934;8.276;2023-04-25T00:17:19;581.55;;;259.83;;
57231;SDS011;43488;46.934;8.276;2023-04-25T00:19:46;600.40;;;260.08;;
57231;SDS011;43488;46.934;8.276;2023-04-25T00:22:14;607.35;;;266.02;;
57231;SDS011;43488;46.934;8.276;2023-04-25T00:24:41;609.55;;;261.90;;
57231;SDS011;43488;46.934;8.276;2023-04-25T00:27:08;606.75;;;266.63;;
57231;SDS011;43488;46.934;8.276;2023-04-25T00:29:35;607.95;;;262.27;;
57231;SDS011;43488;46.934;8.276;2023-04-25T00:32:03;600.75;;;260.10;;
57231;SDS011;43488;46.934;8.276;2023-04-25T00:34:30;609.28;;;269.42;;
57231;SDS011;43488;46.934;8.276;2023-04-25T00:36:59;601.67;;;261.73;;
57231;SDS011;43488;46.934;8.276;2023-04-25T00:39:28;600.33;;;258.42;;
57231;SDS011;43488;46.934;8.276;2023-04-25T00:41:56;606.50;;;270.58;;
57231;SDS011;43488;46.934;8.276;2023-04-25T00:44:24;598.83;;;259.23;;
57231;SDS011;43488;46.934;8.276;2023-04-25T00:46:54;597.75;;;263.90;;
57231;SDS011;43488;46.934;8.276;2023-04-25T00:49:22;604.28;;;269.45;;
57231;SDS011;43488;46.934;8.276;2023-04-25T00:51:50;586.75;;;251.00;;
57231;SDS011;43488;46.934;8.276;2023-04-25T00:54:19;576.72;;;242.77;;
57231;SDS011;43488;46.934;8.276;2023-04-25T00:56:46;582.22;;;255.85;;
57231;SDS011;43488;46.934;8.276;2023-04-25T00:59:14;572.35;;;235.52;;
57231;SDS011;43488;46.934;8.276;2023-04-25T01:01:42;580.33;;;249.07;;
57231;SDS011;43488;46.934;8.276;2023-04-25T01:04:15;574.83;;;244.05;;
57231;SDS011;43488;46.934;8.276;2023-04-25T01:06:42;578.10;;;255.02;;
57231;SDS011;43488;46.934;8.276;2023-04-25T01:09:09;568.47;;;240.43;;
57231;SDS011;43488;46.934;8.276;2023-04-25T01:11:37;578.10;;;254.45;;
57231;SDS011;43488;46.934;8.276;2023-04-25T01:14:06;580.50;;;253.80;;
57231;SDS011;43488;46.934;8.276;2023-04-25T01:16:33;579.83;;;256.48;;
57231;SDS011;43488;46.934;8.276;2023-04-25T01:19:01;573.17;;;245.40;;
57231;SDS011;43488;46.934;8.276;2023-04-25T01:21:31;568.28;;;247.35;;
57231;SDS011;43488;46.934;8.276;2023-04-25T01:23:59;571.22;;;247.35;;
57231;SDS011;43488;46.934;8.276;2023-04-25T01:26:26;558.10;;;242.32;;
57231;SDS011;43488;46.934;8.276;2023-04-25T01:28:54;575.03;;;248.95;;
57231;SDS011;43488;46.934;8.276;2023-04-25T01:31:22;600.55;;;265.83;;
57231;SDS011;43488;46.934;8.276;2023-04-25T01:33:49;554.15;;;222.95;;
57231;SDS011;43488;46.934;8.276;2023-04-25T01:36:18;551.13;;;214.63;;
57231;SDS011;43488;46.934;8.276;2023-04-25T01:38:45;547.25;;;215.57;;
57231;SDS011;43488;46.934;8.276;2023-04-25T01:41:14;550.90;;;236.32;;
57231;SDS011;43488;46.934;8.276;2023-04-25T01:43:41;584.08;;;243.57;;
57231;SDS011;43488;46.934;8.276;2023-04-25T01:46:09;571.75;;;230.77;;
57231;SDS011;43488;46.934;8.276;2023-04-25T01:48:37;556.80;;;219.40;;
57231;SDS011;43488;46.934;8.276;2023-04-25T01:51:04;557.13;;;208.18;;
57231;SDS011;43488;46.934;8.276;2023-04-25T01:53:32;561.17;;;221.98;;
57231;SDS011;43488;46.934;8.276;2023-04-25T01:56:00;463.10;;;209.65;;
57231;SDS011;43488;46.934;8.276;2023-04-25T01:58:27;465.85;;;202.65;;
57231;SDS011;43488;46.934;8.276;2023-04-25T02:00:55;442.90;;;193.82;;
57231;SDS011;43488;46.934;8.276;2023-04-25T02:03:22;478.63;;;209.68;;
57231;SDS011;43488;46.934;8.276;2023-04-25T02:05:50;504.42;;;224.15;;
57231;SDS011;43488;46.934;8.276;2023-04-25T02:08:17;532.15;;;229.02;;
57231;SDS011;43488;46.934;8.276;2023-04-25T02:10:45;559.03;;;244.32;;
57231;SDS011;43488;46.934;8.276;2023-04-25T02:13:12;558.05;;;244.20;;
57231;SDS011;43488;46.934;8.276;2023-04-25T02:15:39;564.67;;;257.17;;
57231;SDS011;43488;46.934;8.276;2023-04-25T02:18:08;559.92;;;243.75;;
57231;SDS011;43488;46.934;8.276;2023-04-25T02:20:36;555.60;;;241.98;;
57231;SDS011;43488;46.934;8.276;2023-04-25T02:23:04;560.90;;;246.30;;
57231;SDS011;43488;46.934;8.276;2023-04-25T02:25:32;561.70;;;248.80;;
57231;SDS011;43488;46.934;8.276;2023-04-25T02:27:59;563.92;;;245.38;;
57231;SDS011;43488;46.934;8.276;2023-04-25T02:30:26;565.45;;;249.85;;
57231;SDS011;43488;46.934;8.276;2023-04-25T02:32:54;568.33;;;254.45;;
57231;SDS011;43488;46.934;8.276;2023-04-25T02:35:21;567.13;;;255.63;;
57231;SDS011;43488;46.934;8.276;2023-04-25T02:37:48;555.13;;;235.55;;
57231;SDS011;43488;46.934;8.276;2023-04-25T02:40:16;556.97;;;242.13;;
57231;SDS011;43488;46.934;8.276;2023-04-25T02:42:44;557.50;;;241.75;;
57231;SDS011;43488;46.934;8.276;2023-04-25T02:45:12;557.63;;;244.05;;
57231;SDS011;43488;46.934;8.276;2023-04-25T02:47:40;566.88;;;251.85;;
57231;SDS011;43488;46.934;8.276;2023-04-25T02:50:08;554.60;;;241.65;;
57231;SDS011;43488;46.934;8.276;2023-04-25T02:52:35;554.13;;;238.05;;
57231;SDS011;43488;46.934;8.276;2023-04-25T02:55:03;559.58;;;245.65;;
57231;SDS011;43488;46.934;8.276;2023-04-25T02:57:31;558.97;;;242.95;;
57231;SDS011;43488;46.934;8.276;2023-04-25T02:59:58;555.25;;;241.95;;
57231;SDS011;43488;46.934;8.276;2023-04-25T03:02:25;555.92;;;240.60;;
57231;SDS011;43488;46.934;8.276;2023-04-25T03:04:53;562.17;;;252.60;;
57231;SDS011;43488;46.934;8.276;2023-04-25T03:07:21;558.60;;;243.40;;
57231;SDS011;43488;46.934;8.276;2023-04-25T03:09:48;543.35;;;236.85;;
57231;SDS011;43488;46.934;8.276;2023-04-25T03:12:17;545.67;;;240.73;;
57231;SDS011;43488;46.934;8.276;2023-04-25T03:14:45;541.13;;;238.48;;
57231;SDS011;43488;46.934;8.276;2023-04-25T03:17:12;537.05;;;232.50;;
57231;SDS011;43488;46.934;8.276;2023-04-25T03:19:41;518.50;;;228.18;;
57231;SDS011;43488;46.934;8.276;2023-04-25T03:22:10;556.28;;;241.60;;
57231;SDS011;43488;46.934;8.276;2023-04-25T03:24:37;507.85;;;213.32;;
57231;SDS011;43488;46.934;8.276;2023-04-25T03:27:07;554.75;;;242.85;;
57231;SDS011;43488;46.934;8.276;2023-04-25T03:29:36;581.92;;;254.75;;
57231;SDS011;43488;46.934;8.276;2023-04-25T03:32:03;551.05;;;242.57;;
57231;SDS011;43488;46.934;8.276;2023-04-25T03:34:31;551.92;;;246.15;;
57231;SDS011;43488;46.934;8.276;2023-04-25T03:36:58;558.15;;;239.73;;
57231;SDS011;43488;46.934;8.276;2023-04-25T03:39:26;563.92;;;243.52;;
57231;SDS011;43488;46.934;8.276;2023-04-25T03:41:53;563.33;;;231.40;;
57231;SDS011;43488;46.934;8.276;2023-04-25T03:44:21;580.90;;;254.32;;
57231;SDS011;43488;46.934;8.276;2023-04-25T03:46:49;567.63;;;231.68;;
57231;SDS011;43488;46.934;8.276;2023-04-25T03:49:16;572.92;;;243.30;;
57231;SDS011;43488;46.934;8.276;2023-04-25T03:51:47;554.92;;;225.13;;
57231;SDS011;43488;46.934;8.276;2023-04-25T03:54:14;582.10;;;256.70;;
57231;SDS011;43488;46.934;8.276;2023-04-25T03:56:42;568.00;;;232.68;;
57231;SDS011;43488;46.934;8.276;2023-04-25T03:59:09;581.03;;;244.75;;
57231;SDS011;43488;46.934;8.276;2023-04-25T04:01:38;588.63;;;256.67;;
57231;SDS011;43488;46.934;8.276;2023-04-25T04:04:06;579.92;;;246.82;;
57231;SDS011;43488;46.934;8.276;2023-04-25T04:06:33;589.78;;;251.80;;
57231;SDS011;43488;46.934;8.276;2023-04-25T04:09:01;596.85;;;257.77;;
57231;SDS011;43488;46.934;8.276;2023-04-25T04:11:30;602.53;;;261.20;;
57231;SDS011;43488;46.934;8.276;2023-04-25T04:13:59;607.67;;;263.27;;
57231;SDS011;43488;46.934;8.276;2023-04-25T04:16:26;612.53;;;261.75;;
57231;SDS011;43488;46.934;8.276;2023-04-25T04:18:53;620.40;;;272.50;;
57231;SDS011;43488;46.934;8.276;2023-04-25T04:21:21;614.70;;;261.17;;
57231;SDS011;43488;46.934;8.276;2023-04-25T04:23:49;626.03;;;276.95;;
57231;SDS011;43488;46.934;8.276;2023-04-25T04:26:16;625.38;;;271.25;;
57231;SDS011;43488;46.934;8.276;2023-04-25T04:28:44;617.67;;;265.33;;
57231;SDS011;43488;46.934;8.276;2023-04-25T04:31:12;627.70;;;274.90;;
57231;SDS011;43488;46.934;8.276;2023-04-25T04:33:41;624.25;;;271.52;;
57231;SDS011;43488;46.934;8.276;2023-04-25T04:36:09;615.88;;;257.20;;
57231;SDS011;43488;46.934;8.276;2023-04-25T04:38:37;622.70;;;270.15;;
57231;SDS011;43488;46.934;8.276;2023-04-25T04:41:06;618.80;;;261.35;;
57231;SDS011;43488;46.934;8.276;2023-04-25T04:43:34;631.40;;;277.92;;
57231;SDS011;43488;46.934;8.276;2023-04-25T04:46:02;628.30;;;271.65;;
57231;SDS011;43488;46.934;8.276;2023-04-25T04:48:33;658.10;;;293.40;;
57231;SDS011;43488;46.934;8.276;2023-04-25T04:51:01;659.60;;;287.50;;
57231;SDS011;43488;46.934;8.276;2023-04-25T04:53:28;659.00;;;293.33;;
57231;SDS011;43488;46.934;8.276;2023-04-25T04:55:55;655.97;;;286.63;;
57231;SDS011;43488;46.934;8.276;2023-04-25T04:58:22;657.35;;;286.02;;
57231;SDS011;43488;46.934;8.276;2023-04-25T05:00:50;661.13;;;294.27;;
57231;SDS011;43488;46.934;8.276;2023-04-25T05:03:17;650.05;;;281.55;;
57231;SDS011;43488;46.934;8.276;2023-04-25T05:05:44;660.15;;;294.40;;
57231;SDS011;43488;46.934;8.276;2023-04-25T05:08:12;649.85;;;284.23;;
57231;SDS011;43488;46.934;8.276;2023-04-25T05:10:40;652.28;;;287.40;;
57231;SDS011;43488;46.934;8.276;2023-04-25T05:13:08;646.67;;;288.23;;
57231;SDS011;43488;46.934;8.276;2023-04-25T05:15:38;634.45;;;271.75;;
57231;SDS011;43488;46.934;8.276;2023-04-25T05:18:05;633.08;;;280.40;;
57231;SDS011;43488;46.934;8.276;2023-04-25T05:20:33;576.45;;;250.38;;
57231;SDS011;43488;46.934;8.276;2023-04-25T05:23:01;574.45;;;238.75;;
57231;SDS011;43488;46.934;8.276;2023-04-25T05:25:28;588.03;;;256.60;;
57231;SDS011;43488;46.934;8.276;2023-04-25T05:27:57;591.65;;;256.52;;
57231;SDS011;43488;46.934;8.276;2023-04-25T05:30:24;600.60;;;255.80;;
57231;SDS011;43488;46.934;8.276;2023-04-25T05:32:52;567.13;;;230.63;;
57231;SDS011;43488;46.934;8.276;2023-04-25T05:35:19;598.70;;;258.73;;
57231;SDS011;43488;46.934;8.276;2023-04-25T05:37:46;599.13;;;261.30;;
57231;SDS011;43488;46.934;8.276;2023-04-25T05:40:14;593.72;;;263.55;;
57231;SDS011;43488;46.934;8.276;2023-04-25T05:42:41;577.05;;;240.27;;
57231;SDS011;43488;46.934;8.276;2023-04-25T05:45:09;594.05;;;257.33;;
57231;SDS011;43488;46.934;8.276;2023-04-25T05:47:37;596.70;;;260.38;;
57231;SDS011;43488;46.934;8.276;2023-04-25T05:50:05;605.50;;;263.08;;
57231;SDS011;43488;46.934;8.276;2023-04-25T05:52:33;611.28;;;273.88;;
57231;SDS011;43488;46.934;8.276;2023-04-25T05:55:01;616.33;;;263.40;;
57231;SDS011;43488;46.934;8.276;2023-04-25T05:57:28;640.88;;;281.83;;
57231;SDS011;43488;46.934;8.276;2023-04-25T05:59:56;615.05;;;268.95;;
57231;SDS011;43488;46.934;8.276;2023-04-25T06:02:23;630.88;;;281.92;;
57231;SDS011;43488;46.934;8.276;2023-04-25T06:04:50;635.35;;;273.23;;
57231;SDS011;43488;46.934;8.276;2023-04-25T06:07:18;634.90;;;277.60;;
57231;SDS011;43488;46.934;8.276;2023-04-25T06:09:47;619.72;;;262.27;;
57231;SDS011;43488;46.934;8.276;2023-04-25T06:12:16;618.22;;;266.70;;
57231;SDS011;43488;46.934;8.276;2023-04-25T06:14:48;618.53;;;264.00;;
57231;SDS011;43488;46.934;8.276;2023-04-25T06:17:15;602.30;;;255.65;;
57231;SDS011;43488;46.934;8.276;2023-04-25T06:19:43;617.50;;;266.10;;
57231;SDS011;43488;46.934;8.276;2023-04-25T06:22:10;644.22;;;278.88;;
57231;SDS011;43488;46.934;8.276;2023-04-25T06:24:38;631.65;;;266.60;;
57231;SDS011;43488;46.934;8.276;2023-04-25T06:27:05;641.10;;;279.88;;
57231;SDS011;43488;46.934;8.276;2023-04-25T06:29:33;635.97;;;270.83;;
57231;SDS011;43488;46.934;8.276;2023-04-25T06:32:01;651.95;;;290.92;;
57231;SDS011;43488;46.934;8.276;2023-04-25T06:34:28;655.08;;;291.63;;
57231;SDS011;43488;46.934;8.276;2023-04-25T06:36:56;648.03;;;284.20;;
57231;SDS011;43488;46.934;8.276;2023-04-25T06:39:24;634.80;;;274.25;;
57231;SDS011;43488;46.934;8.276;2023-04-25T06:41:51;649.88;;;290.95;;
57231;SDS011;43488;46.934;8.276;2023-04-25T06:44:20;639.90;;;273.70;;
57231;SDS011;43488;46.934;8.276;2023-04-25T06:46:49;648.70;;;287.48;;
57231;SDS011;43488;46.934;8.276;2023-04-25T06:49:16;625.22;;;256.58;;
57231;SDS011;43488;46.934;8.276;2023-04-25T06:51:44;637.90;;;280.73;;
57231;SDS011;43488;46.934;8.276;2023-04-25T06:54:11;641.30;;;274.77;;
57231;SDS011;43488;46.934;8.276;2023-04-25T06:56:38;647.50;;;284.35;;
57231;SDS011;43488;46.934;8.276;2023-04-25T06:59:06;637.00;;;270.35;;
57231;SDS011;43488;46.934;8.276;2023-04-25T07:01:33;636.22;;;275.20;;
57231;SDS011;43488;46.934;8.276;2023-04-25T07:04:01;641.28;;;277.02;;
57231;SDS011;43488;46.934;8.276;2023-04-25T07:06:28;629.10;;;269.75;;
57231;SDS011;43488;46.934;8.276;2023-04-25T07:08:56;633.28;;;276.35;;
57231;SDS011;43488;46.934;8.276;2023-04-25T07:11:23;625.47;;;270.92;;
57231;SDS011;43488;46.934;8.276;2023-04-25T07:13:50;613.95;;;260.67;;
57231;SDS011;43488;46.934;8.276;2023-04-25T07:16:18;588.70;;;255.73;;
57231;SDS011;43488;46.934;8.276;2023-04-25T07:18:45;607.67;;;268.50;;
57231;SDS011;43488;46.934;8.276;2023-04-25T07:21:12;610.20;;;268.15;;
57231;SDS011;43488;46.934;8.276;2023-04-25T07:23:40;610.80;;;262.25;;
57231;SDS011;43488;46.934;8.276;2023-04-25T07:26:07;605.95;;;260.20;;
57231;SDS011;43488;46.934;8.276;2023-04-25T07:28:34;601.92;;;256.17;;
57231;SDS011;43488;46.934;8.276;2023-04-25T07:31:01;610.33;;;260.02;;
57231;SDS011;43488;46.934;8.276;2023-04-25T07:33:29;616.58;;;263.17;;
57231;SDS011;43488;46.934;8.276;2023-04-25T07:35:57;614.95;;;263.00;;
57231;SDS011;43488;46.934;8.276;2023-04-25T07:38:25;622.70;;;274.85;;
57231;SDS011;43488;46.934;8.276;2023-04-25T07:40:52;613.53;;;265.42;;
57231;SDS011;43488;46.934;8.276;2023-04-25T07:43:19;620.95;;;269.67;;
57231;SDS011;43488;46.934;8.276;2023-04-25T07:45:47;615.60;;;264.67;;
57231;SDS011;43488;46.934;8.276;2023-04-25T07:48:18;613.53;;;264.55;;
57231;SDS011;43488;46.934;8.276;2023-04-25T07:50:46;621.70;;;273.02;;
57231;SDS011;43488;46.934;8.276;2023-04-25T07:53:13;612.45;;;259.02;;
57231;SDS011;43488;46.934;8.276;2023-04-25T07:55:41;616.92;;;269.25;;
57231;SDS011;43488;46.934;8.276;2023-04-25T07:58:08;603.10;;;256.95;;
57231;SDS011;43488;46.934;8.276;2023-04-25T08:00:36;618.00;;;268.83;;
57231;SDS011;43488;46.934;8.276;2023-04-25T08:03:04;615.65;;;259.48;;
57231;SDS011;43488;46.934;8.276;2023-04-25T08:05:33;606.38;;;266.02;;
57231;SDS011;43488;46.934;8.276;2023-04-25T08:08:01;608.00;;;269.45;;
57231;SDS011;43488;46.934;8.276;2023-04-25T08:10:29;607.60;;;273.35;;
57231;SDS011;43488;46.934;8.276;2023-04-25T08:12:56;603.28;;;257.75;;
57231;SDS011;43488;46.934;8.276;2023-04-25T08:15:23;608.78;;;269.05;;
57231;SDS011;43488;46.934;8.276;2023-04-25T08:17:51;603.28;;;268.75;;
57231;SDS011;43488;46.934;8.276;2023-04-25T08:20:19;567.33;;;217.30;;
57231;SDS011;43488;46.934;8.276;2023-04-25T08:22:47;600.22;;;259.10;;
57231;SDS011;43488;46.934;8.276;2023-04-25T08:25:15;599.45;;;266.33;;
57231;SDS011;43488;46.934;8.276;2023-04-25T08:27:43;594.55;;;261.40;;
57231;SDS011;43488;46.934;8.276;2023-04-25T08:30:11;583.90;;;258.35;;
57231;SDS011;43488;46.934;8.276;2023-04-25T08:32:39;581.55;;;251.13;;
57231;SDS011;43488;46.934;8.276;2023-04-25T08:35:07;586.17;;;256.88;;
57231;SDS011;43488;46.934;8.276;2023-04-25T08:37:35;591.92;;;255.40;;
57231;SDS011;43488;46.934;8.276;2023-04-25T08:40:03;593.00;;;265.00;;
57231;SDS011;43488;46.934;8.276;2023-04-25T08:42:35;596.25;;;258.52;;
57231;SDS011;43488;46.934;8.276;2023-04-25T08:45:04;592.25;;;258.17;;
57231;SDS011;43488;46.934;8.276;2023-04-25T08:47:33;607.15;;;266.80;;
57231;SDS011;43488;46.934;8.276;2023-04-25T08:50:04;606.20;;;264.70;;
57231;SDS011;43488;46.934;8.276;2023-04-25T08:52:35;597.15;;;252.80;;
57231;SDS011;43488;46.934;8.276;2023-04-25T08:55:09;617.08;;;271.95;;
57231;SDS011;43488;46.934;8.276;2023-04-25T08:57:42;624.38;;;265.95;;
57231;SDS011;43488;46.934;8.276;2023-04-25T09:00:11;620.28;;;266.27;;
57231;SDS011;43488;46.934;8.276;2023-04-25T09:02:39;619.03;;;263.23;;
57231;SDS011;43488;46.934;8.276;2023-04-25T09:05:09;622.10;;;267.73;;
57231;SDS011;43488;46.934;8.276;2023-04-25T09:07:40;620.78;;;265.80;;
57231;SDS011;43488;46.934;8.276;2023-04-25T09:10:07;620.80;;;267.55;;
57231;SDS011;43488;46.934;8.276;2023-04-25T09:12:35;628.58;;;267.23;;
57231;SDS011;43488;46.934;8.276;2023-04-25T09:15:13;624.67;;;270.08;;
57231;SDS011;43488;46.934;8.276;2023-04-25T09:17:42;622.85;;;267.05;;
57231;SDS011;43488;46.934;8.276;2023-04-25T09:20:14;614.53;;;262.40;;
57231;SDS011;43488;46.934;8.276;2023-04-25T09:22:42;624.28;;;272.15;;
57231;SDS011;43488;46.934;8.276;2023-04-25T09:25:12;616.28;;;260.55;;
57231;SDS011;43488;46.934;8.276;2023-04-25T09:27:50;623.47;;;268.55;;
57231;SDS011;43488;46.934;8.276;2023-04-25T09:30:28;623.92;;;274.35;;
57231;SDS011;43488;46.934;8.276;2023-04-25T09:32:57;620.70;;;265.15;;
57231;SDS011;43488;46.934;8.276;2023-04-25T09:35:36;607.78;;;259.20;;
57231;SDS011;43488;46.934;8.276;2023-04-25T09:38:07;616.93;;;268.33;;
57231;SDS011;43488;46.934;8.276;2023-04-25T09:40:43;613.03;;;267.10;;
57231;SDS011;43488;46.934;8.276;2023-04-25T09:45:50;612.15;;;269.13;;
57231;SDS011;43488;46.934;8.276;2023-04-25T09:48:20;619.08;;;263.95;;
57231;SDS011;43488;46.934;8.276;2023-04-25T09:53:38;616.25;;;263.05;;
57231;SDS011;43488;46.934;8.276;2023-04-25T09:56:10;618.45;;;268.75;;
57231;SDS011;43488;46.934;8.276;2023-04-25T09:58:39;614.17;;;260.88;;
57231;SDS011;43488;46.934;8.276;2023-04-25T10:01:08;618.85;;;270.70;;
57231;SDS011;43488;46.934;8.276;2023-04-25T10:03:38;615.22;;;262.88;;
57231;SDS011;43488;46.934;8.276;2023-04-25T10:06:14;610.97;;;263.00;;
57231;SDS011;43488;46.934;8.276;2023-04-25T10:08:47;615.17;;;262.50;;
57231;SDS011;43488;46.934;8.276;2023-04-25T10:11:20;617.13;;;268.38;;
57231;SDS011;43488;46.934;8.276;2023-04-25T10:13:49;623.17;;;269.08;;
57231;SDS011;43488;46.934;8.276;2023-04-25T10:16:18;628.05;;;274.38;;
57231;SDS011;43488;46.934;8.276;2023-04-25T10:18:46;627.58;;;274.45;;
57231;SDS011;43488;46.934;8.276;2023-04-25T10:21:14;615.50;;;262.35;;
57231;SDS011;43488;46.934;8.276;2023-04-25T10:23:44;619.60;;;260.67;;
57231;SDS011;43488;46.934;8.276;2023-04-25T10:26:11;617.15;;;265.38;;
57231;SDS011;43488;46.934;8.276;2023-04-25T10:29:15;621.75;;;269.92;;
57231;SDS011;43488;46.934;8.276;2023-04-25T10:31:44;623.97;;;278.13;;
57231;SDS011;43488;46.934;8.276;2023-04-25T10:34:13;626.05;;;267.58;;
57231;SDS011;43488;46.934;8.276;2023-04-25T10:36:48;613.67;;;259.67;;
57231;SDS011;43488;46.934;8.276;2023-04-25T10:39:22;624.55;;;275.15;;
57231;SDS011;43488;46.934;8.276;2023-04-25T10:41:58;616.17;;;271.48;;
57231;SDS011;43488;46.934;8.276;2023-04-25T10:44:29;622.60;;;270.75;;
57231;SDS011;43488;46.934;8.276;2023-04-25T10:46:58;618.90;;;268.75;;
57231;SDS011;43488;46.934;8.276;2023-04-25T10:49:28;617.40;;;266.50;;
57231;SDS011;43488;46.934;8.276;2023-04-25T10:54:57;616.05;;;264.88;;
57231;SDS011;43488;46.934;8.276;2023-04-25T10:57:40;623.17;;;273.58;;
57231;SDS011;43488;46.934;8.276;2023-04-25T11:05:34;524.75;;;227.38;;
57231;SDS011;43488;46.934;8.276;2023-04-25T11:08:02;542.67;;;237.68;;
57231;SDS011;43488;46.934;8.276;2023-04-25T11:10:40;557.88;;;241.45;;
57231;SDS011;43488;46.934;8.276;2023-04-25T11:13:08;551.72;;;241.18;;
57231;SDS011;43488;46.934;8.276;2023-04-25T11:15:36;566.08;;;244.85;;
57231;SDS011;43488;46.934;8.276;2023-04-25T11:18:06;556.30;;;227.17;;
57231;SDS011;43488;46.934;8.276;2023-04-25T11:20:34;592.08;;;264.75;;
57231;SDS011;43488;46.934;8.276;2023-04-25T11:23:03;587.60;;;257.23;;
57231;SDS011;43488;46.934;8.276;2023-04-25T11:25:31;594.67;;;258.25;;
57231;SDS011;43488;46.934;8.276;2023-04-25T11:27:59;586.30;;;248.65;;
57231;SDS011;43488;46.934;8.276;2023-04-25T11:30:27;597.42;;;260.55;;
57231;SDS011;43488;46.934;8.276;2023-04-25T11:32:57;592.13;;;252.73;;
57231;SDS011;43488;46.934;8.276;2023-04-25T11:35:24;601.53;;;263.23;;
57231;SDS011;43488;46.934;8.276;2023-04-25T11:37:52;592.42;;;250.63;;
57231;SDS011;43488;46.934;8.276;2023-04-25T11:40:19;599.90;;;262.98;;
57231;SDS011;43488;46.934;8.276;2023-04-25T11:42:46;599.83;;;265.67;;
57231;SDS011;43488;46.934;8.276;2023-04-25T11:45:14;601.25;;;269.42;;
57231;SDS011;43488;46.934;8.276;2023-04-25T11:47:41;595.45;;;264.60;;
57231;SDS011;43488;46.934;8.276;2023-04-25T11:50:09;617.70;;;274.10;;
57231;SDS011;43488;46.934;8.276;2023-04-25T11:52:40;619.53;;;261.90;;
57231;SDS011;43488;46.934;8.276;2023-04-25T11:55:13;625.97;;;268.58;;
57231;SDS011;43488;46.934;8.276;2023-04-25T11:57:50;600.10;;;252.27;;
57231;SDS011;43488;46.934;8.276;2023-04-25T12:00:20;639.85;;;277.75;;
57231;SDS011;43488;46.934;8.276;2023-04-25T12:02:53;630.97;;;273.42;;
57231;SDS011;43488;46.934;8.276;2023-04-25T12:05:25;636.08;;;279.13;;
57231;SDS011;43488;46.934;8.276;2023-04-25T12:08:09;606.47;;;264.13;;
57231;SDS011;43488;46.934;8.276;2023-04-25T12:10:41;642.50;;;287.10;;
57231;SDS011;43488;46.934;8.276;2023-04-25T12:13:17;657.28;;;294.67;;
57231;SDS011;43488;46.934;8.276;2023-04-25T12:15:54;658.70;;;293.23;;
57231;SDS011;43488;46.934;8.276;2023-04-25T12:18:23;652.38;;;289.98;;
57231;SDS011;43488;46.934;8.276;2023-04-25T12:20:54;625.55;;;263.73;;
57231;SDS011;43488;46.934;8.276;2023-04-25T12:23:25;622.13;;;271.38;;
57231;SDS011;43488;46.934;8.276;2023-04-25T12:25:54;642.53;;;272.27;;
57231;SDS011;43488;46.934;8.276;2023-04-25T12:28:23;657.92;;;291.88;;
57231;SDS011;43488;46.934;8.276;2023-04-25T12:31:03;669.20;;;300.35;;
57231;SDS011;43488;46.934;8.276;2023-04-25T12:33:36;676.75;;;306.45;;
57231;SDS011;43488;46.934;8.276;2023-04-25T12:36:04;672.53;;;290.33;;
57231;SDS011;43488;46.934;8.276;2023-04-25T12:38:38;678.53;;;294.25;;
57231;SDS011;43488;46.934;8.276;2023-04-25T12:41:08;676.30;;;289.30;;
57231;SDS011;43488;46.934;8.276;2023-04-25T12:43:36;674.72;;;289.92;;
57231;SDS011;43488;46.934;8.276;2023-04-25T12:46:04;691.60;;;306.58;;
57231;SDS011;43488;46.934;8.276;2023-04-25T12:48:32;684.50;;;299.98;;
57231;SDS011;43488;46.934;8.276;2023-04-25T12:50:59;688.70;;;302.90;;
57231;SDS011;43488;46.934;8.276;2023-04-25T12:53:27;687.53;;;301.20;;
57231;SDS011;43488;46.934;8.276;2023-04-25T12:55:54;687.50;;;298.25;;
57231;SDS011;43488;46.934;8.276;2023-04-25T12:58:22;681.38;;;298.25;;
57231;SDS011;43488;46.934;8.276;2023-04-25T13:00:50;688.35;;;302.83;;
57231;SDS011;43488;46.934;8.276;2023-04-25T13:03:17;676.58;;;291.65;;
57231;SDS011;43488;46.934;8.276;2023-04-25T13:05:45;689.40;;;306.85;;
57231;SDS011;43488;46.934;8.276;2023-04-25T13:08:13;679.90;;;297.35;;
57231;SDS011;43488;46.934;8.276;2023-04-25T13:10:40;686.83;;;304.48;;
57231;SDS011;43488;46.934;8.276;2023-04-25T13:13:08;682.60;;;299.90;;
57231;SDS011;43488;46.934;8.276;2023-04-25T13:15:35;686.95;;;304.25;;
57231;SDS011;43488;46.934;8.276;2023-04-25T13:18:03;673.90;;;284.00;;
57231;SDS011;43488;46.934;8.276;2023-04-25T13:20:32;689.08;;;306.42;;
57231;SDS011;43488;46.934;8.276;2023-04-25T13:23:00;679.42;;;293.60;;
57231;SDS011;43488;46.934;8.276;2023-04-25T13:25:27;687.80;;;304.42;;
57231;SDS011;43488;46.934;8.276;2023-04-25T13:27:56;684.25;;;301.08;;
57231;SDS011;43488;46.934;8.276;2023-04-25T13:30:23;686.78;;;305.25;;
57231;SDS011;43488;46.934;8.276;2023-04-25T13:32:51;671.33;;;286.45;;
57231;SDS011;43488;46.934;8.276;2023-04-25T13:35:19;680.38;;;290.45;;
57231;SDS011;43488;46.934;8.276;2023-04-25T13:37:46;664.42;;;278.45;;
57231;SDS011;43488;46.934;8.276;2023-04-25T13:40:14;687.42;;;306.75;;
57231;SDS011;43488;46.934;8.276;2023-04-25T13:42:41;679.00;;;295.42;;
57231;SDS011;43488;46.934;8.276;2023-04-25T13:45:10;677.60;;;292.52;;
57231;SDS011;43488;46.934;8.276;2023-04-25T13:47:38;668.28;;;283.10;;
57231;SDS011;43488;46.934;8.276;2023-04-25T13:50:07;686.38;;;304.45;;
57231;SDS011;43488;46.934;8.276;2023-04-25T13:52:36;682.53;;;302.52;;
57231;SDS011;43488;46.934;8.276;2023-04-25T13:55:03;675.72;;;289.55;;
57231;SDS011;43488;46.934;8.276;2023-04-25T13:57:34;685.42;;;301.73;;
57231;SDS011;43488;46.934;8.276;2023-04-25T14:00:03;688.33;;;307.40;;
57231;SDS011;43488;46.934;8.276;2023-04-25T14:02:35;678.88;;;295.63;;
57231;SDS011;43488;46.934;8.276;2023-04-25T14:05:03;677.40;;;295.08;;
57231;SDS011;43488;46.934;8.276;2023-04-25T14:07:33;673.75;;;287.65;;
57231;SDS011;43488;46.934;8.276;2023-04-25T14:10:01;678.10;;;290.70;;
57231;SDS011;43488;46.934;8.276;2023-04-25T14:12:31;680.15;;;297.38;;
57231;SDS011;43488;46.934;8.276;2023-04-25T14:14:59;669.67;;;285.02;;
57231;SDS011;43488;46.934;8.276;2023-04-25T14:17:26;681.40;;;298.45;;